sensor_id;sensor_type;location;lat;lon;timestamp;P1;durP1;ratioP1;P2;durP2;ratioP2
21420;SDS011;10871;50.144;8.428;2022-12-29T00:01:36;6.05;;;2.70;;
21420;SDS011;10871;50.144;8.428;2022-12-29T00:04:03;4.00;;;2.92;;
21420;SDS011;10871;50.144;8.428;2022-12-29T00:06:35;3.80;;;2.90;;
21420;SDS011;10871;50.144;8.428;2022-12-29T00:09:01;3.38;;;2.83;;
21420;SDS011;10871;50.144;8.428;2022-12-29T00:11:28;4.32;;;2.80;;
21420;SDS011;10871;50.144;8.428;2022-12-29T00:13:54;5.97;;;3.20;;
21420;SDS011;10871;50.144;8.428;2022-12-29T00:16:43;7.18;;;3.28;;
21420;SDS011;10871;50.144;8.428;2022-12-29T00:19:09;4.78;;;2.92;;
21420;SDS011;10871;50.144;8.428;2022-12-29T00:21:56;6.03;;;2.60;;
21420;SDS011;10871;50.144;8.428;2022-12-29T00:24:43;4.10;;;2.85;;
21420;SDS011;10871;50.144;8.428;2022-12-29T00:27:29;3.30;;;2.55;;
21420;SDS011;10871;50.144;8.428;2022-12-29T00:30:18;5.22;;;2.75;;
21420;SDS011;10871;50.144;8.428;2022-12-29T00:33:14;4.60;;;3.28;;
21420;SDS011;10871;50.144;8.428;2022-12-29T00:36:10;4.68;;;2.75;;
21420;SDS011;10871;50.144;8.428;2022-12-29T00:38:38;4.78;;;3.00;;
21420;SDS011;10871;50.144;8.428;2022-12-29T00:41:24;4.25;;;2.90;;
21420;SDS011;10871;50.144;8.428;2022-12-29T00:44:10;6.18;;;3.05;;
21420;SDS011;10871;50.144;8.428;2022-12-29T00:46:38;6.45;;;2.72;;
21420;SDS011;10871;50.144;8.428;2022-12-29T00:49:06;3.03;;;2.60;;
21420;SDS011;10871;50.144;8.428;2022-12-29T00:51:54;4.30;;;2.90;;
21420;SDS011;10871;50.144;8.428;2022-12-29T00:54:20;4.13;;;2.92;;
21420;SDS011;10871;50.144;8.428;2022-12-29T00:56:47;3.25;;;2.40;;
21420;SDS011;10871;50.144;8.428;2022-12-29T00:59:15;5.53;;;3.08;;
21420;SDS011;10871;50.144;8.428;2022-12-29T01:01:44;4.15;;;3.05;;
21420;SDS011;10871;50.144;8.428;2022-12-29T01:04:10;5.75;;;2.90;;
21420;SDS011;10871;50.144;8.428;2022-12-29T01:06:38;6.53;;;3.08;;
21420;SDS011;10871;50.144;8.428;2022-12-29T01:09:05;5.03;;;3.00;;
21420;SDS011;10871;50.144;8.428;2022-12-29T01:11:50;6.00;;;3.35;;
21420;SDS011;10871;50.144;8.428;2022-12-29T01:14:17;8.45;;;3.13;;
21420;SDS011;10871;50.144;8.428;2022-12-29T01:16:43;7.88;;;2.55;;
21420;SDS011;10871;50.144;8.428;2022-12-29T01:19:10;3.53;;;2.70;;
21420;SDS011;10871;50.144;8.428;2022-12-29T01:21:36;5.03;;;2.60;;
21420;SDS011;10871;50.144;8.428;2022-12-29T01:24:03;3.75;;;2.65;;
21420;SDS011;10871;50.144;8.428;2022-12-29T01:26:30;3.83;;;3.00;;
21420;SDS011;10871;50.144;8.428;2022-12-29T01:28:56;7.43;;;2.90;;
21420;SDS011;10871;50.144;8.428;2022-12-29T01:31:23;5.25;;;3.20;;
21420;SDS011;10871;50.144;8.428;2022-12-29T01:33:49;4.35;;;3.33;;
21420;SDS011;10871;50.144;8.428;2022-12-29T01:36:16;4.07;;;3.05;;
21420;SDS011;10871;50.144;8.428;2022-12-29T01:38:42;6.32;;;3.17;;
21420;SDS011;10871;50.144;8.428;2022-12-29T01:41:09;4.82;;;2.95;;
21420;SDS011;10871;50.144;8.428;2022-12-29T01:43:41;5.60;;;2.75;;
21420;SDS011;10871;50.144;8.428;2022-12-29T01:46:30;5.80;;;2.67;;
21420;SDS011;10871;50.144;8.428;2022-12-29T01:51:40;8.52;;;2.88;;
21420;SDS011;10871;50.144;8.428;2022-12-29T01:54:09;3.72;;;2.42;;
21420;SDS011;10871;50.144;8.428;2022-12-29T01:56:37;5.38;;;3.10;;
21420;SDS011;10871;50.144;8.428;2022-12-29T01:59:05;5.68;;;2.92;;
21420;SDS011;10871;50.144;8.428;2022-12-29T02:01:33;4.90;;;2.90;;
21420;SDS011;10871;50.144;8.428;2022-12-29T02:04:00;5.60;;;3.10;;
21420;SDS011;10871;50.144;8.428;2022-12-29T02:06:32;4.05;;;2.95;;
21420;SDS011;10871;50.144;8.428;2022-12-29T02:08:59;6.53;;;3.38;;
21420;SDS011;10871;50.144;8.428;2022-12-29T02:11:26;5.70;;;3.28;;
21420;SDS011;10871;50.144;8.428;2022-12-29T02:13:54;5.03;;;3.00;;
21420;SDS011;10871;50.144;8.428;2022-12-29T02:34:47;5.15;;;3.00;;
21420;SDS011;10871;50.144;8.428;2022-12-29T02:39:46;5.00;;;3.15;;
21420;SDS011;10871;50.144;8.428;2022-12-29T02:42:21;5.57;;;3.13;;
21420;SDS011;10871;50.144;8.428;2022-12-29T02:45:06;5.57;;;3.25;;
21420;SDS011;10871;50.144;8.428;2022-12-29T02:50:06;4.78;;;2.63;;
21420;SDS011;10871;50.144;8.428;2022-12-29T02:52:36;5.18;;;2.83;;
21420;SDS011;10871;50.144;8.428;2022-12-29T02:55:05;3.53;;;2.50;;
21420;SDS011;10871;50.144;8.428;2022-12-29T02:57:34;3.72;;;2.05;;
21420;SDS011;10871;50.144;8.428;2022-12-29T03:02:34;4.85;;;2.35;;
21420;SDS011;10871;50.144;8.428;2022-12-29T03:07:46;3.22;;;2.17;;
21420;SDS011;10871;50.144;8.428;2022-12-29T03:10:26;3.70;;;2.05;;
21420;SDS011;10871;50.144;8.428;2022-12-29T03:12:59;5.90;;;2.15;;
21420;SDS011;10871;50.144;8.428;2022-12-29T03:15:55;3.70;;;2.35;;
21420;SDS011;10871;50.144;8.428;2022-12-29T03:18:37;2.60;;;2.00;;
21420;SDS011;10871;50.144;8.428;2022-12-29T03:23:31;4.00;;;2.00;;
21420;SDS011;10871;50.144;8.428;2022-12-29T03:25:59;2.95;;;2.30;;
21420;SDS011;10871;50.144;8.428;2022-12-29T03:28:28;2.55;;;2.00;;
21420;SDS011;10871;50.144;8.428;2022-12-29T03:30:56;3.05;;;2.00;;
21420;SDS011;10871;50.144;8.428;2022-12-29T03:33:25;4.95;;;2.10;;
21420;SDS011;10871;50.144;8.428;2022-12-29T03:35:55;4.10;;;2.45;;
21420;SDS011;10871;50.144;8.428;2022-12-29T03:38:46;2.97;;;1.90;;
21420;SDS011;10871;50.144;8.428;2022-12-29T03:41:20;3.38;;;2.13;;
21420;SDS011;10871;50.144;8.428;2022-12-29T03:43:49;3.58;;;2.03;;
21420;SDS011;10871;50.144;8.428;2022-12-29T03:46:16;5.55;;;2.25;;
21420;SDS011;10871;50.144;8.428;2022-12-29T03:48:43;5.32;;;2.20;;
21420;SDS011;10871;50.144;8.428;2022-12-29T03:51:10;3.75;;;2.00;;
21420;SDS011;10871;50.144;8.428;2022-12-29T03:53:36;2.67;;;2.10;;
21420;SDS011;10871;50.144;8.428;2022-12-29T03:56:02;5.70;;;2.50;;
21420;SDS011;10871;50.144;8.428;2022-12-29T03:58:29;6.95;;;2.15;;
21420;SDS011;10871;50.144;8.428;2022-12-29T04:01:18;4.53;;;2.38;;
21420;SDS011;10871;50.144;8.428;2022-12-29T04:03:45;5.20;;;2.42;;
21420;SDS011;10871;50.144;8.428;2022-12-29T04:06:11;4.40;;;2.47;;
21420;SDS011;10871;50.144;8.428;2022-12-29T04:08:44;3.97;;;2.63;;
21420;SDS011;10871;50.144;8.428;2022-12-29T04:11:11;4.90;;;2.58;;
21420;SDS011;10871;50.144;8.428;2022-12-29T04:13:38;5.38;;;2.38;;
21420;SDS011;10871;50.144;8.428;2022-12-29T04:16:08;5.00;;;2.50;;
21420;SDS011;10871;50.144;8.428;2022-12-29T04:18:35;3.88;;;2.40;;
21420;SDS011;10871;50.144;8.428;2022-12-29T04:21:02;4.75;;;2.50;;
21420;SDS011;10871;50.144;8.428;2022-12-29T04:23:35;5.72;;;2.60;;
21420;SDS011;10871;50.144;8.428;2022-12-29T04:26:05;4.35;;;2.30;;
21420;SDS011;10871;50.144;8.428;2022-12-29T04:28:48;4.10;;;2.33;;
21420;SDS011;10871;50.144;8.428;2022-12-29T04:31:26;3.35;;;2.80;;
21420;SDS011;10871;50.144;8.428;2022-12-29T04:33:52;4.38;;;2.38;;
21420;SDS011;10871;50.144;8.428;2022-12-29T04:36:20;4.70;;;2.40;;
21420;SDS011;10871;50.144;8.428;2022-12-29T04:38:55;4.72;;;2.53;;
21420;SDS011;10871;50.144;8.428;2022-12-29T04:41:21;7.05;;;2.70;;
21420;SDS011;10871;50.144;8.428;2022-12-29T04:43:47;4.45;;;2.70;;
21420;SDS011;10871;50.144;8.428;2022-12-29T04:46:38;3.70;;;2.67;;
21420;SDS011;10871;50.144;8.428;2022-12-29T04:49:16;6.07;;;2.83;;
21420;SDS011;10871;50.144;8.428;2022-12-29T04:51:54;3.88;;;2.25;;
21420;SDS011;10871;50.144;8.428;2022-12-29T04:54:21;5.45;;;2.67;;
21420;SDS011;10871;50.144;8.428;2022-12-29T04:56:55;3.97;;;2.35;;
21420;SDS011;10871;50.144;8.428;2022-12-29T04:59:22;3.67;;;2.30;;
21420;SDS011;10871;50.144;8.428;2022-12-29T05:01:53;5.65;;;2.50;;
21420;SDS011;10871;50.144;8.428;2022-12-29T05:04:19;4.65;;;2.80;;
21420;SDS011;10871;50.144;8.428;2022-12-29T05:06:46;5.38;;;2.13;;
21420;SDS011;10871;50.144;8.428;2022-12-29T05:09:12;3.05;;;2.08;;
21420;SDS011;10871;50.144;8.428;2022-12-29T05:11:39;4.20;;;2.63;;
21420;SDS011;10871;50.144;8.428;2022-12-29T05:14:08;6.47;;;2.30;;
21420;SDS011;10871;50.144;8.428;2022-12-29T05:16:35;5.70;;;2.67;;
21420;SDS011;10871;50.144;8.428;2022-12-29T05:19:01;4.70;;;2.38;;
21420;SDS011;10871;50.144;8.428;2022-12-29T05:21:29;3.63;;;2.30;;
21420;SDS011;10871;50.144;8.428;2022-12-29T05:23:57;4.13;;;2.70;;
21420;SDS011;10871;50.144;8.428;2022-12-29T05:26:23;4.78;;;2.10;;
21420;SDS011;10871;50.144;8.428;2022-12-29T05:29:25;2.47;;;2.08;;
21420;SDS011;10871;50.144;8.428;2022-12-29T05:31:52;4.47;;;2.30;;
21420;SDS011;10871;50.144;8.428;2022-12-29T05:34:19;4.00;;;2.70;;
21420;SDS011;10871;50.144;8.428;2022-12-29T05:36:46;4.25;;;2.47;;
21420;SDS011;10871;50.144;8.428;2022-12-29T05:39:13;3.72;;;2.40;;
21420;SDS011;10871;50.144;8.428;2022-12-29T05:41:42;5.70;;;2.58;;
21420;SDS011;10871;50.144;8.428;2022-12-29T05:44:24;3.05;;;2.58;;
21420;SDS011;10871;50.144;8.428;2022-12-29T05:47:13;4.35;;;2.80;;
21420;SDS011;10871;50.144;8.428;2022-12-29T05:50:07;5.07;;;2.53;;
21420;SDS011;10871;50.144;8.428;2022-12-29T05:52:52;4.47;;;2.63;;
21420;SDS011;10871;50.144;8.428;2022-12-29T05:55:19;5.43;;;2.60;;
21420;SDS011;10871;50.144;8.428;2022-12-29T05:57:47;4.38;;;2.70;;
21420;SDS011;10871;50.144;8.428;2022-12-29T06:00:16;6.00;;;2.83;;
21420;SDS011;10871;50.144;8.428;2022-12-29T06:02:45;6.00;;;2.95;;
21420;SDS011;10871;50.144;8.428;2022-12-29T06:05:14;7.43;;;2.70;;
21420;SDS011;10871;50.144;8.428;2022-12-29T06:07:40;5.20;;;2.97;;
21420;SDS011;10871;50.144;8.428;2022-12-29T06:10:07;5.35;;;2.70;;
21420;SDS011;10871;50.144;8.428;2022-12-29T06:12:47;3.58;;;2.53;;
21420;SDS011;10871;50.144;8.428;2022-12-29T06:15:14;4.40;;;2.50;;
21420;SDS011;10871;50.144;8.428;2022-12-29T06:17:42;6.55;;;2.63;;
21420;SDS011;10871;50.144;8.428;2022-12-29T06:20:09;3.88;;;2.53;;
21420;SDS011;10871;50.144;8.428;2022-12-29T06:22:36;7.78;;;2.95;;
21420;SDS011;10871;50.144;8.428;2022-12-29T06:25:03;6.18;;;2.72;;
21420;SDS011;10871;50.144;8.428;2022-12-29T06:27:32;3.45;;;2.50;;
21420;SDS011;10871;50.144;8.428;2022-12-29T06:29:59;6.18;;;2.65;;
21420;SDS011;10871;50.144;8.428;2022-12-29T06:32:26;3.60;;;2.50;;
21420;SDS011;10871;50.144;8.428;2022-12-29T06:34:58;4.45;;;2.70;;
21420;SDS011;10871;50.144;8.428;2022-12-29T06:37:25;3.92;;;2.30;;
21420;SDS011;10871;50.144;8.428;2022-12-29T06:39:51;6.07;;;2.70;;
21420;SDS011;10871;50.144;8.428;2022-12-29T06:42:18;3.90;;;2.13;;
21420;SDS011;10871;50.144;8.428;2022-12-29T06:45:04;4.22;;;2.40;;
21420;SDS011;10871;50.144;8.428;2022-12-29T06:47:31;3.10;;;2.15;;
21420;SDS011;10871;50.144;8.428;2022-12-29T06:49:57;4.65;;;2.20;;
21420;SDS011;10871;50.144;8.428;2022-12-29T06:52:24;4.25;;;2.20;;
21420;SDS011;10871;50.144;8.428;2022-12-29T06:54:50;5.25;;;2.47;;
21420;SDS011;10871;50.144;8.428;2022-12-29T06:57:16;6.43;;;2.30;;
21420;SDS011;10871;50.144;8.428;2022-12-29T06:59:43;3.60;;;2.30;;
21420;SDS011;10871;50.144;8.428;2022-12-29T07:02:10;5.90;;;2.40;;
21420;SDS011;10871;50.144;8.428;2022-12-29T07:04:37;5.13;;;2.42;;
21420;SDS011;10871;50.144;8.428;2022-12-29T07:07:03;7.68;;;2.70;;
21420;SDS011;10871;50.144;8.428;2022-12-29T07:09:29;4.45;;;2.80;;
21420;SDS011;10871;50.144;8.428;2022-12-29T07:11:56;6.43;;;2.58;;
21420;SDS011;10871;50.144;8.428;2022-12-29T07:14:22;5.03;;;2.67;;
21420;SDS011;10871;50.144;8.428;2022-12-29T07:16:50;5.85;;;2.55;;
21420;SDS011;10871;50.144;8.428;2022-12-29T07:19:16;4.88;;;2.45;;
21420;SDS011;10871;50.144;8.428;2022-12-29T07:21:43;4.25;;;2.90;;
21420;SDS011;10871;50.144;8.428;2022-12-29T07:24:12;4.13;;;2.35;;
21420;SDS011;10871;50.144;8.428;2022-12-29T07:26:43;6.80;;;2.95;;
21420;SDS011;10871;50.144;8.428;2022-12-29T07:29:09;6.70;;;2.75;;
21420;SDS011;10871;50.144;8.428;2022-12-29T07:31:35;4.35;;;2.55;;
21420;SDS011;10871;50.144;8.428;2022-12-29T07:34:02;5.53;;;2.70;;
21420;SDS011;10871;50.144;8.428;2022-12-29T07:36:28;4.32;;;2.50;;
21420;SDS011;10871;50.144;8.428;2022-12-29T07:39:00;6.15;;;2.88;;
21420;SDS011;10871;50.144;8.428;2022-12-29T07:41:26;3.70;;;2.45;;
21420;SDS011;10871;50.144;8.428;2022-12-29T07:43:53;7.30;;;2.45;;
21420;SDS011;10871;50.144;8.428;2022-12-29T07:46:57;3.85;;;2.72;;
21420;SDS011;10871;50.144;8.428;2022-12-29T07:49:25;9.18;;;3.08;;
21420;SDS011;10871;50.144;8.428;2022-12-29T07:51:53;6.68;;;2.90;;
21420;SDS011;10871;50.144;8.428;2022-12-29T07:54:20;6.13;;;2.70;;
21420;SDS011;10871;50.144;8.428;2022-12-29T07:56:51;4.43;;;2.63;;
21420;SDS011;10871;50.144;8.428;2022-12-29T07:59:18;4.38;;;2.95;;
21420;SDS011;10871;50.144;8.428;2022-12-29T08:01:45;5.13;;;2.88;;
21420;SDS011;10871;50.144;8.428;2022-12-29T08:04:14;5.38;;;2.90;;
21420;SDS011;10871;50.144;8.428;2022-12-29T08:06:41;3.78;;;2.60;;
21420;SDS011;10871;50.144;8.428;2022-12-29T08:09:08;5.43;;;2.50;;
21420;SDS011;10871;50.144;8.428;2022-12-29T08:14:15;6.18;;;2.80;;
21420;SDS011;10871;50.144;8.428;2022-12-29T08:16:42;6.68;;;3.15;;
21420;SDS011;10871;50.144;8.428;2022-12-29T08:19:12;5.82;;;2.97;;
21420;SDS011;10871;50.144;8.428;2022-12-29T08:21:39;4.68;;;2.92;;
21420;SDS011;10871;50.144;8.428;2022-12-29T08:24:06;5.75;;;3.20;;
21420;SDS011;10871;50.144;8.428;2022-12-29T08:26:32;5.45;;;3.25;;
21420;SDS011;10871;50.144;8.428;2022-12-29T08:31:28;5.18;;;3.15;;
21420;SDS011;10871;50.144;8.428;2022-12-29T08:33:55;6.05;;;3.10;;
21420;SDS011;10871;50.144;8.428;2022-12-29T08:36:21;3.55;;;3.13;;
21420;SDS011;10871;50.144;8.428;2022-12-29T08:38:49;4.63;;;3.08;;
21420;SDS011;10871;50.144;8.428;2022-12-29T08:41:15;7.38;;;3.05;;
21420;SDS011;10871;50.144;8.428;2022-12-29T08:43:45;8.30;;;3.55;;
21420;SDS011;10871;50.144;8.428;2022-12-29T08:46:11;5.75;;;3.17;;
21420;SDS011;10871;50.144;8.428;2022-12-29T08:48:38;6.07;;;3.63;;
21420;SDS011;10871;50.144;8.428;2022-12-29T08:51:04;6.03;;;3.30;;
21420;SDS011;10871;50.144;8.428;2022-12-29T08:53:32;5.43;;;3.33;;
21420;SDS011;10871;50.144;8.428;2022-12-29T08:55:59;5.75;;;3.97;;
21420;SDS011;10871;50.144;8.428;2022-12-29T08:58:38;7.95;;;3.85;;
21420;SDS011;10871;50.144;8.428;2022-12-29T09:01:05;7.47;;;3.50;;
21420;SDS011;10871;50.144;8.428;2022-12-29T09:03:32;4.50;;;3.63;;
21420;SDS011;10871;50.144;8.428;2022-12-29T09:06:18;6.30;;;3.40;;
21420;SDS011;10871;50.144;8.428;2022-12-29T09:08:46;5.05;;;3.55;;
21420;SDS011;10871;50.144;8.428;2022-12-29T09:11:15;4.32;;;3.38;;
21420;SDS011;10871;50.144;8.428;2022-12-29T09:13:42;10.70;;;3.75;;
21420;SDS011;10871;50.144;8.428;2022-12-29T09:16:08;7.20;;;3.80;;
21420;SDS011;10871;50.144;8.428;2022-12-29T09:18:35;6.35;;;3.80;;
21420;SDS011;10871;50.144;8.428;2022-12-29T09:21:02;6.07;;;4.07;;
21420;SDS011;10871;50.144;8.428;2022-12-29T09:23:30;8.05;;;4.22;;
21420;SDS011;10871;50.144;8.428;2022-12-29T09:28:35;4.75;;;3.65;;
21420;SDS011;10871;50.144;8.428;2022-12-29T09:31:03;7.10;;;3.88;;
21420;SDS011;10871;50.144;8.428;2022-12-29T09:33:29;7.10;;;4.28;;
21420;SDS011;10871;50.144;8.428;2022-12-29T09:35:57;7.18;;;4.03;;
21420;SDS011;10871;50.144;8.428;2022-12-29T09:38:24;5.90;;;4.05;;
21420;SDS011;10871;50.144;8.428;2022-12-29T09:43:24;7.57;;;3.55;;
21420;SDS011;10871;50.144;8.428;2022-12-29T09:48:40;3.45;;;2.72;;
21420;SDS011;10871;50.144;8.428;2022-12-29T09:51:12;3.30;;;2.75;;
21420;SDS011;10871;50.144;8.428;2022-12-29T09:53:43;6.28;;;2.80;;
21420;SDS011;10871;50.144;8.428;2022-12-29T09:56:13;4.10;;;2.60;;
21420;SDS011;10871;50.144;8.428;2022-12-29T09:58:45;4.88;;;2.80;;
21420;SDS011;10871;50.144;8.428;2022-12-29T10:03:45;4.68;;;2.70;;
21420;SDS011;10871;50.144;8.428;2022-12-29T10:06:22;4.30;;;2.80;;
21420;SDS011;10871;50.144;8.428;2022-12-29T10:14:26;4.65;;;2.85;;
21420;SDS011;10871;50.144;8.428;2022-12-29T10:22:17;5.07;;;2.40;;
21420;SDS011;10871;50.144;8.428;2022-12-29T10:24:49;3.50;;;2.38;;
21420;SDS011;10871;50.144;8.428;2022-12-29T10:27:17;4.13;;;2.10;;
21420;SDS011;10871;50.144;8.428;2022-12-29T10:29:52;4.60;;;2.10;;
21420;SDS011;10871;50.144;8.428;2022-12-29T10:32:31;4.03;;;2.38;;
21420;SDS011;10871;50.144;8.428;2022-12-29T10:35:00;3.03;;;2.20;;
21420;SDS011;10871;50.144;8.428;2022-12-29T10:37:42;4.57;;;2.05;;
21420;SDS011;10871;50.144;8.428;2022-12-29T10:40:22;3.75;;;1.75;;
21420;SDS011;10871;50.144;8.428;2022-12-29T10:42:52;5.63;;;1.85;;
21420;SDS011;10871;50.144;8.428;2022-12-29T10:45:19;2.28;;;1.52;;
21420;SDS011;10871;50.144;8.428;2022-12-29T10:47:53;2.30;;;1.48;;
21420;SDS011;10871;50.144;8.428;2022-12-29T10:50:22;3.58;;;1.52;;
21420;SDS011;10871;50.144;8.428;2022-12-29T10:52:49;1.52;;;1.40;;
21420;SDS011;10871;50.144;8.428;2022-12-29T10:55:21;4.03;;;1.50;;
21420;SDS011;10871;50.144;8.428;2022-12-29T10:57:48;2.75;;;1.23;;
21420;SDS011;10871;50.144;8.428;2022-12-29T11:00:16;1.30;;;1.13;;
21420;SDS011;10871;50.144;8.428;2022-12-29T11:08:04;2.13;;;0.90;;
21420;SDS011;10871;50.144;8.428;2022-12-29T11:10:38;2.50;;;1.20;;
21420;SDS011;10871;50.144;8.428;2022-12-29T11:13:12;3.35;;;1.20;;
21420;SDS011;10871;50.144;8.428;2022-12-29T11:15:43;0.65;;;0.60;;
21420;SDS011;10871;50.144;8.428;2022-12-29T11:20:57;1.40;;;0.77;;
21420;SDS011;10871;50.144;8.428;2022-12-29T11:28:38;2.35;;;1.10;;
21420;SDS011;10871;50.144;8.428;2022-12-29T11:31:05;3.13;;;1.02;;
21420;SDS011;10871;50.144;8.428;2022-12-29T11:33:33;1.08;;;0.80;;
21420;SDS011;10871;50.144;8.428;2022-12-29T11:36:04;1.70;;;0.80;;
21420;SDS011;10871;50.144;8.428;2022-12-29T11:38:36;4.93;;;0.95;;
21420;SDS011;10871;50.144;8.428;2022-12-29T11:41:03;1.65;;;0.75;;
21420;SDS011;10871;50.144;8.428;2022-12-29T11:43:34;1.50;;;0.70;;
21420;SDS011;10871;50.144;8.428;2022-12-29T11:46:01;1.55;;;0.80;;
21420;SDS011;10871;50.144;8.428;2022-12-29T11:48:32;2.78;;;0.80;;
21420;SDS011;10871;50.144;8.428;2022-12-29T11:50:59;4.50;;;0.93;;
21420;SDS011;10871;50.144;8.428;2022-12-29T11:53:28;2.95;;;0.93;;
21420;SDS011;10871;50.144;8.428;2022-12-29T11:55:59;3.53;;;0.90;;
21420;SDS011;10871;50.144;8.428;2022-12-29T11:58:31;1.00;;;0.70;;
21420;SDS011;10871;50.144;8.428;2022-12-29T12:01:02;1.83;;;0.80;;
21420;SDS011;10871;50.144;8.428;2022-12-29T12:03:30;3.55;;;0.95;;
21420;SDS011;10871;50.144;8.428;2022-12-29T12:06:00;2.75;;;0.88;;
21420;SDS011;10871;50.144;8.428;2022-12-29T12:13:30;1.85;;;0.80;;
21420;SDS011;10871;50.144;8.428;2022-12-29T12:16:08;3.00;;;0.90;;
21420;SDS011;10871;50.144;8.428;2022-12-29T12:18:44;4.95;;;1.02;;
21420;SDS011;10871;50.144;8.428;2022-12-29T12:26:37;2.17;;;0.70;;
21420;SDS011;10871;50.144;8.428;2022-12-29T12:29:10;3.78;;;1.00;;
21420;SDS011;10871;50.144;8.428;2022-12-29T12:34:50;2.38;;;0.90;;
21420;SDS011;10871;50.144;8.428;2022-12-29T12:55:46;5.05;;;1.10;;
21420;SDS011;10871;50.144;8.428;2022-12-29T12:58:25;2.60;;;1.00;;
21420;SDS011;10871;50.144;8.428;2022-12-29T13:03:40;4.85;;;1.25;;
21420;SDS011;10871;50.144;8.428;2022-12-29T13:06:23;2.42;;;0.95;;
21420;SDS011;10871;50.144;8.428;2022-12-29T13:08:59;2.75;;;1.00;;
21420;SDS011;10871;50.144;8.428;2022-12-29T13:11:34;5.43;;;1.38;;
21420;SDS011;10871;50.144;8.428;2022-12-29T13:14:10;1.75;;;1.00;;
21420;SDS011;10871;50.144;8.428;2022-12-29T13:19:30;4.70;;;0.85;;
21420;SDS011;10871;50.144;8.428;2022-12-29T13:22:13;2.55;;;0.80;;
21420;SDS011;10871;50.144;8.428;2022-12-29T13:30:08;2.72;;;1.00;;
21420;SDS011;10871;50.144;8.428;2022-12-29T13:37:51;3.00;;;1.00;;
21420;SDS011;10871;50.144;8.428;2022-12-29T13:40:21;3.33;;;0.80;;
21420;SDS011;10871;50.144;8.428;2022-12-29T13:42:48;2.20;;;0.88;;
21420;SDS011;10871;50.144;8.428;2022-12-29T13:45:16;2.17;;;1.00;;
21420;SDS011;10871;50.144;8.428;2022-12-29T13:47:49;3.58;;;1.00;;
21420;SDS011;10871;50.144;8.428;2022-12-29T13:50:19;2.38;;;0.90;;
21420;SDS011;10871;50.144;8.428;2022-12-29T13:55:32;4.97;;;1.20;;
21420;SDS011;10871;50.144;8.428;2022-12-29T14:00:52;5.53;;;1.20;;
21420;SDS011;10871;50.144;8.428;2022-12-29T14:03:23;3.00;;;0.90;;
21420;SDS011;10871;50.144;8.428;2022-12-29T14:08:34;3.70;;;1.08;;
21420;SDS011;10871;50.144;8.428;2022-12-29T14:11:04;5.25;;;1.52;;
21420;SDS011;10871;50.144;8.428;2022-12-29T14:13:33;2.67;;;1.23;;
21420;SDS011;10871;50.144;8.428;2022-12-29T14:16:03;5.18;;;1.17;;
21420;SDS011;10871;50.144;8.428;2022-12-29T14:18:33;3.20;;;1.10;;
21420;SDS011;10871;50.144;8.428;2022-12-29T14:23:43;5.00;;;1.30;;
21420;SDS011;10871;50.144;8.428;2022-12-29T14:26:11;4.32;;;1.10;;
21420;SDS011;10871;50.144;8.428;2022-12-29T14:28:42;2.88;;;1.20;;
21420;SDS011;10871;50.144;8.428;2022-12-29T14:36:40;5.55;;;1.30;;
21420;SDS011;10871;50.144;8.428;2022-12-29T14:44:51;5.65;;;1.20;;
21420;SDS011;10871;50.144;8.428;2022-12-29T14:47:25;3.67;;;1.35;;
21420;SDS011;10871;50.144;8.428;2022-12-29T14:49:53;5.65;;;1.42;;
21420;SDS011;10871;50.144;8.428;2022-12-29T14:52:24;4.47;;;1.27;;
21420;SDS011;10871;50.144;8.428;2022-12-29T14:54:53;3.67;;;1.10;;
21420;SDS011;10871;50.144;8.428;2022-12-29T14:57:21;5.32;;;1.20;;
21420;SDS011;10871;50.144;8.428;2022-12-29T14:59:48;4.20;;;1.50;;
21420;SDS011;10871;50.144;8.428;2022-12-29T15:02:19;3.25;;;1.27;;
21420;SDS011;10871;50.144;8.428;2022-12-29T15:04:47;3.30;;;1.10;;
21420;SDS011;10871;50.144;8.428;2022-12-29T15:07:14;3.60;;;1.40;;
21420;SDS011;10871;50.144;8.428;2022-12-29T15:09:43;5.45;;;1.95;;
21420;SDS011;10871;50.144;8.428;2022-12-29T15:12:33;6.65;;;1.80;;
21420;SDS011;10871;50.144;8.428;2022-12-29T15:15:01;4.55;;;1.30;;
21420;SDS011;10871;50.144;8.428;2022-12-29T15:17:33;7.20;;;1.73;;
21420;SDS011;10871;50.144;8.428;2022-12-29T15:20:02;3.50;;;1.63;;
21420;SDS011;10871;50.144;8.428;2022-12-29T15:22:44;5.05;;;1.20;;
21420;SDS011;10871;50.144;8.428;2022-12-29T15:25:15;3.58;;;1.40;;
21420;SDS011;10871;50.144;8.428;2022-12-29T15:27:42;5.25;;;1.42;;
21420;SDS011;10871;50.144;8.428;2022-12-29T15:30:13;3.05;;;1.40;;
21420;SDS011;10871;50.144;8.428;2022-12-29T15:32:45;5.53;;;1.17;;
21420;SDS011;10871;50.144;8.428;2022-12-29T15:35:23;6.20;;;1.20;;
21420;SDS011;10871;50.144;8.428;2022-12-29T15:37:50;4.95;;;1.40;;
21420;SDS011;10871;50.144;8.428;2022-12-29T15:42:55;4.32;;;1.23;;
21420;SDS011;10871;50.144;8.428;2022-12-29T15:45:30;5.13;;;1.50;;
21420;SDS011;10871;50.144;8.428;2022-12-29T15:47:58;5.95;;;1.20;;
21420;SDS011;10871;50.144;8.428;2022-12-29T15:50:26;4.25;;;1.27;;
21420;SDS011;10871;50.144;8.428;2022-12-29T15:52:53;5.03;;;1.20;;
21420;SDS011;10871;50.144;8.428;2022-12-29T15:55:21;4.00;;;1.48;;
21420;SDS011;10871;50.144;8.428;2022-12-29T15:57:51;5.03;;;1.25;;
21420;SDS011;10871;50.144;8.428;2022-12-29T16:00:23;6.55;;;1.80;;
21420;SDS011;10871;50.144;8.428;2022-12-29T16:02:49;6.22;;;1.50;;
21420;SDS011;10871;50.144;8.428;2022-12-29T16:05:16;5.20;;;1.30;;
21420;SDS011;10871;50.144;8.428;2022-12-29T16:07:57;3.72;;;1.05;;
21420;SDS011;10871;50.144;8.428;2022-12-29T16:10:29;5.40;;;1.40;;
21420;SDS011;10871;50.144;8.428;2022-12-29T16:13:01;3.05;;;1.30;;
21420;SDS011;10871;50.144;8.428;2022-12-29T16:15:28;6.00;;;1.42;;
21420;SDS011;10871;50.144;8.428;2022-12-29T16:17:55;4.57;;;1.38;;
21420;SDS011;10871;50.144;8.428;2022-12-29T16:20:23;4.28;;;1.40;;
21420;SDS011;10871;50.144;8.428;2022-12-29T16:22:51;7.60;;;1.60;;
21420;SDS011;10871;50.144;8.428;2022-12-29T16:25:31;5.90;;;1.42;;
21420;SDS011;10871;50.144;8.428;2022-12-29T16:27:58;5.03;;;1.55;;
21420;SDS011;10871;50.144;8.428;2022-12-29T16:30:26;5.03;;;1.20;;
21420;SDS011;10871;50.144;8.428;2022-12-29T16:33:03;5.38;;;1.30;;
21420;SDS011;10871;50.144;8.428;2022-12-29T16:38:16;7.68;;;1.70;;
21420;SDS011;10871;50.144;8.428;2022-12-29T16:40:52;4.72;;;1.67;;
21420;SDS011;10871;50.144;8.428;2022-12-29T16:43:26;7.18;;;1.60;;
21420;SDS011;10871;50.144;8.428;2022-12-29T16:48:24;9.88;;;1.85;;
21420;SDS011;10871;50.144;8.428;2022-12-29T16:50:51;5.50;;;1.15;;
21420;SDS011;10871;50.144;8.428;2022-12-29T16:53:24;4.25;;;1.23;;
21420;SDS011;10871;50.144;8.428;2022-12-29T16:55:52;6.85;;;1.30;;
21420;SDS011;10871;50.144;8.428;2022-12-29T16:58:25;7.57;;;2.00;;
21420;SDS011;10871;50.144;8.428;2022-12-29T17:00:54;7.82;;;1.42;;
21420;SDS011;10871;50.144;8.428;2022-12-29T17:03:22;5.13;;;1.70;;
21420;SDS011;10871;50.144;8.428;2022-12-29T17:05:49;8.05;;;1.30;;
21420;SDS011;10871;50.144;8.428;2022-12-29T17:08:22;7.35;;;1.50;;
21420;SDS011;10871;50.144;8.428;2022-12-29T17:10:52;5.25;;;1.50;;
21420;SDS011;10871;50.144;8.428;2022-12-29T17:13:37;9.60;;;1.60;;
21420;SDS011;10871;50.144;8.428;2022-12-29T17:16:05;7.03;;;1.60;;
21420;SDS011;10871;50.144;8.428;2022-12-29T17:18:33;7.03;;;1.90;;
21420;SDS011;10871;50.144;8.428;2022-12-29T17:21:00;5.82;;;1.77;;
21420;SDS011;10871;50.144;8.428;2022-12-29T17:23:26;5.80;;;1.67;;
21420;SDS011;10871;50.144;8.428;2022-12-29T17:25:54;6.43;;;1.63;;
21420;SDS011;10871;50.144;8.428;2022-12-29T17:28:21;9.75;;;1.80;;
21420;SDS011;10871;50.144;8.428;2022-12-29T17:30:48;9.13;;;1.67;;
21420;SDS011;10871;50.144;8.428;2022-12-29T17:33:19;5.28;;;1.52;;
21420;SDS011;10871;50.144;8.428;2022-12-29T17:35:45;7.60;;;1.75;;
21420;SDS011;10871;50.144;8.428;2022-12-29T17:38:22;5.80;;;1.60;;
21420;SDS011;10871;50.144;8.428;2022-12-29T17:40:51;4.03;;;1.63;;